Time;durP1;ratioP1;P1;durP2;ratioP2;P2;SDS_P1;SDS_P2;PMS_P1;PMS_P2;Temp;Humidity;BMP_temperature;BMP_pressure;BME280_temperature;BME280_humidity;BME280_pressure;Samples;Min_cycle;Max_cycle;Signal;HPM_P1;HPM_P2
2023/06/21 00:01:02;;;;;;;11.70;3.85;;;21.80;77.70;;;;;;5025806;28;20060;-64
2023/06/21 00:03:27;;;;;;;9.77;3.70;;;21.80;77.50;;;;;;5035215;28;20496;-61
2023/06/21 00:05:53;;;;;;;10.75;3.70;;;21.80;77.30;;;;;;5033396;28;20036;-63
2023/06/21 00:08:19;;;;;;;9.55;3.55;;;21.80;77.00;;;;;;5027568;28;20037;-63
2023/06/21 00:10:45;;;;;;;12.30;4.22;;;21.90;77.20;;;;;;5023226;28;20488;-63
2023/06/21 00:13:10;;;;;;;9.05;3.45;;;21.90;77.30;;;;;;5026292;28;20132;-63
2023/06/21 00:15:36;;;;;;;8.02;3.60;;;21.90;77.30;;;;;;5026083;28;20158;-63
2023/06/21 00:18:02;;;;;;;8.35;3.70;;;21.90;77.20;;;;;;5030703;28;20087;-64
2023/06/21 00:20:28;;;;;;;8.05;3.42;;;21.90;77.30;;;;;;5035574;28;20439;-64
2023/06/21 00:22:55;;;;;;;13.80;3.70;;;21.90;77.50;;;;;;5035564;28;20037;-63
2023/06/21 00:25:21;;;;;;;8.13;3.38;;;21.80;77.30;;;;;;5035171;28;20041;-64
2023/06/21 00:27:47;;;;;;;10.15;3.70;;;21.80;77.30;;;;;;5032842;28;20037;-63
2023/06/21 00:30:12;;;;;;;7.80;3.80;;;21.80;77.40;;;;;;5031734;28;20045;-63
2023/06/21 00:32:41;;;;;;;9.40;3.17;;;21.80;77.30;;;;;;5025245;28;20485;-64
2023/06/21 00:35:07;;;;;;;13.98;3.75;;;21.80;77.30;;;;;;5030576;28;20025;-63
2023/06/21 00:37:32;;;;;;;11.98;4.13;;;21.80;77.30;;;;;;5028709;28;20140;-64
2023/06/21 00:39:58;;;;;;;13.23;3.80;;;21.90;77.20;;;;;;5025146;28;20568;-63
2023/06/21 00:42:24;;;;;;;12.88;4.15;;;21.80;77.20;;;;;;5028464;28;20032;-63
2023/06/21 00:44:49;;;;;;;9.82;3.30;;;21.90;77.30;;;;;;5031381;28;20040;-61
2023/06/21 00:47:15;;;;;;;7.65;3.65;;;21.90;77.20;;;;;;5025688;28;20029;-64
2023/06/21 00:49:40;;;;;;;12.90;3.97;;;21.80;77.20;;;;;;5031922;28;20025;-64
2023/06/21 00:52:07;;;;;;;13.85;4.10;;;21.80;77.30;;;;;;5031160;28;20034;-63
2023/06/21 00:54:35;;;;;;;7.93;3.53;;;21.80;77.30;;;;;;5033225;28;20043;-63
2023/06/21 00:57:02;;;;;;;10.70;3.35;;;21.70;77.30;;;;;;5035543;28;20040;-63
2023/06/21 00:59:28;;;;;;;7.07;3.63;;;21.70;77.30;;;;;;5034160;28;20128;-63
2023/06/21 01:01:57;;;;;;;11.15;3.92;;;21.70;77.20;;;;;;5023166;28;20705;-63
2023/06/21 01:04:31;;;;;;;11.70;3.65;;;21.70;77.60;;;;;;5032263;28;20127;-64
2023/06/21 01:07:16;;;;;;;11.80;3.60;;;21.70;78.00;;;;;;5031493;28;20037;-63
2023/06/21 01:09:54;;;;;;;11.10;3.40;;;21.70;77.50;;;;;;5030778;28;20378;-63
2023/06/21 01:12:26;;;;;;;9.55;3.63;;;21.70;78.20;;;;;;5029217;28;20029;-64
2023/06/21 01:15:02;;;;;;;7.78;3.50;;;21.70;77.30;;;;;;5031623;28;20041;-64
2023/06/21 01:17:32;;;;;;;9.35;3.40;;;21.60;77.30;;;;;;5032577;28;20065;-63
2023/06/21 01:19:58;;;;;;;10.88;3.78;;;21.60;77.50;;;;;;5033095;28;20041;-63
2023/06/21 01:22:51;;;;;;;11.55;3.97;;;21.50;77.50;;;;;;5030610;28;20073;-63
2023/06/21 01:25:32;;;;;;;9.63;3.58;;;21.60;78.70;;;;;;5028831;28;20673;-63
2023/06/21 01:28:32;;;;;;;9.00;3.95;;;21.50;77.70;;;;;;5030914;28;20099;-63
2023/06/21 01:30:59;;;;;;;9.48;3.75;;;21.50;78.90;;;;;;5023700;28;20033;-65
2023/06/21 01:33:27;;;;;;;8.88;3.65;;;21.50;77.70;;;;;;5032332;28;20556;-62
2023/06/21 01:35:54;;;;;;;10.93;3.67;;;21.40;77.90;;;;;;5030420;28;20103;-64
2023/06/21 01:38:20;;;;;;;8.95;3.25;;;21.40;77.80;;;;;;5031237;28;20409;-63
2023/06/21 01:40:46;;;;;;;9.15;3.45;;;21.30;78.10;;;;;;5032160;28;20037;-63
2023/06/21 01:43:13;;;;;;;8.65;3.55;;;21.20;78.30;;;;;;5028175;28;20562;-62
2023/06/21 01:45:40;;;;;;;9.43;3.75;;;21.20;78.50;;;;;;5028487;28;20041;-63
2023/06/21 01:48:07;;;;;;;10.68;3.67;;;21.20;78.60;;;;;;5029278;28;20577;-64
2023/06/21 01:50:35;;;;;;;10.48;3.47;;;21.10;78.70;;;;;;5027912;28;20515;-63
2023/06/21 01:53:01;;;;;;;7.78;3.28;;;21.10;78.70;;;;;;5027766;28;20048;-64
2023/06/21 01:55:28;;;;;;;6.95;3.17;;;21.00;78.90;;;;;;5029161;28;20593;-63
2023/06/21 01:57:56;;;;;;;6.35;2.90;;;21.00;78.90;;;;;;5031203;28;20037;-63
2023/06/21 02:00:22;;;;;;;7.68;3.17;;;21.00;78.80;;;;;;5028223;28;20061;-63
2023/06/21 02:02:50;;;;;;;9.88;3.20;;;21.00;78.70;;;;;;5026505;28;20068;-63
2023/06/21 02:05:16;;;;;;;9.52;3.15;;;21.00;78.90;;;;;;5028598;28;20045;-62
2023/06/21 02:07:45;;;;;;;8.20;3.15;;;21.00;78.80;;;;;;5028990;28;20036;-63
2023/06/21 02:10:12;;;;;;;8.13;3.55;;;21.00;78.90;;;;;;5029728;28;20025;-64
2023/06/21 02:12:40;;;;;;;7.30;3.13;;;21.00;78.60;;;;;;5025927;28;20033;-64
2023/06/21 02:15:06;;;;;;;11.30;3.05;;;21.00;78.70;;;;;;5028127;28;20404;-64
2023/06/21 02:17:32;;;;;;;8.40;3.28;;;21.00;78.60;;;;;;5028048;28;20574;-63
2023/06/21 02:19:58;;;;;;;7.38;3.42;;;21.00;78.60;;;;;;5036395;28;20045;-63
2023/06/21 02:22:23;;;;;;;10.25;3.65;;;20.90;78.70;;;;;;5038221;28;20036;-63
2023/06/21 02:24:49;;;;;;;9.77;3.50;;;20.90;78.70;;;;;;5037593;28;20500;-64
2023/06/21 02:27:15;;;;;;;7.88;3.35;;;21.00;79.10;;;;;;5038057;28;20107;-64
2023/06/21 02:29:40;;;;;;;9.80;3.25;;;20.90;79.00;;;;;;5038533;28;20033;-64
2023/06/21 02:32:06;;;;;;;8.82;3.45;;;20.90;79.00;;;;;;5030161;28;21356;-62
2023/06/21 02:34:32;;;;;;;13.02;3.83;;;20.80;79.10;;;;;;5026748;28;20052;-63
2023/06/21 02:36:57;;;;;;;12.35;3.97;;;20.80;79.40;;;;;;5026882;28;20044;-63
2023/06/21 02:39:24;;;;;;;11.80;4.00;;;20.70;79.60;;;;;;5027294;28;20552;-63
2023/06/21 02:41:51;;;;;;;12.05;3.72;;;20.70;79.90;;;;;;5029045;28;20063;-65
2023/06/21 02:44:17;;;;;;;11.30;3.97;;;20.60;80.00;;;;;;5027766;28;20030;-63
2023/06/21 02:46:43;;;;;;;9.88;4.18;;;20.50;80.30;;;;;;5025743;28;20044;-63
2023/06/21 02:49:08;;;;;;;8.48;3.67;;;20.50;80.60;;;;;;5029243;28;20037;-63
2023/06/21 02:51:36;;;;;;;14.02;4.20;;;20.50;81.70;;;;;;5028870;28;20086;-64
2023/06/21 02:54:02;;;;;;;11.32;3.90;;;20.40;81.30;;;;;;5027075;28;20042;-63
2023/06/21 02:56:30;;;;;;;13.15;3.97;;;20.40;81.20;;;;;;5028645;28;20042;-62
2023/06/21 02:58:56;;;;;;;9.35;3.65;;;20.40;81.20;;;;;;5027119;28;20041;-63
2023/06/21 03:01:21;;;;;;;9.48;4.10;;;20.20;81.20;;;;;;5028132;28;20110;-63
2023/06/21 03:03:47;;;;;;;7.18;3.63;;;20.30;81.50;;;;;;5027981;28;20068;-63
2023/06/21 03:06:13;;;;;;;9.55;3.85;;;20.20;81.70;;;;;;5030297;28;20033;-61
2023/06/21 03:08:38;;;;;;;8.95;3.78;;;20.20;82.70;;;;;;5029268;28;20103;-63
2023/06/21 03:11:12;;;;;;;8.55;3.42;;;20.20;81.90;;;;;;5029145;28;20025;-63
2023/06/21 03:13:37;;;;;;;10.75;3.85;;;20.20;81.90;;;;;;5027916;28;20116;-63
2023/06/21 03:16:04;;;;;;;9.45;3.53;;;20.30;81.90;;;;;;5030206;28;20568;-63
2023/06/21 03:18:30;;;;;;;12.30;4.30;;;20.30;81.80;;;;;;5027682;28;20041;-63
2023/06/21 03:21:00;;;;;;;9.70;3.67;;;20.40;81.70;;;;;;5028033;28;20037;-63
2023/06/21 03:23:26;;;;;;;9.05;3.95;;;20.40;81.70;;;;;;5036909;28;20341;-63
2023/06/21 03:25:52;;;;;;;7.40;3.47;;;20.40;81.60;;;;;;5033527;28;20055;-63
2023/06/21 03:28:18;;;;;;;14.07;4.60;;;20.40;81.60;;;;;;5028023;28;20041;-63
2023/06/21 03:30:43;;;;;;;13.15;4.57;;;20.40;81.60;;;;;;5028191;28;20037;-63
2023/06/21 03:33:10;;;;;;;10.13;4.22;;;20.40;81.70;;;;;;5028017;28;20048;-63
2023/06/21 03:35:36;;;;;;;8.57;4.03;;;20.40;81.90;;;;;;5026218;28;20065;-63
2023/06/21 03:38:02;;;;;;;9.85;4.38;;;20.40;82.00;;;;;;5029329;28;20037;-62
2023/06/21 03:40:28;;;;;;;11.80;4.28;;;20.40;82.40;;;;;;5028251;28;20077;-63
2023/06/21 03:42:53;;;;;;;9.45;4.35;;;20.40;82.60;;;;;;5028894;28;20084;-63
2023/06/21 03:45:19;;;;;;;7.15;4.28;;;20.40;82.70;;;;;;5025405;28;20036;-63
2023/06/21 03:47:44;;;;;;;11.57;4.35;;;20.40;82.80;;;;;;5026310;28;20048;-62
2023/06/21 03:50:11;;;;;;;10.50;4.55;;;20.40;83.00;;;;;;5027181;28;20082;-64
2023/06/21 03:52:37;;;;;;;17.17;5.00;;;20.40;83.40;;;;;;5027455;28;20029;-63
2023/06/21 03:55:05;;;;;;;13.63;4.68;;;20.40;83.70;;;;;;5030749;28;20402;-63
2023/06/21 03:57:30;;;;;;;16.17;5.20;;;20.30;84.20;;;;;;5031142;28;20041;-63
2023/06/21 03:59:56;;;;;;;11.07;4.38;;;20.20;85.20;;;;;;5027152;28;20091;-64
2023/06/21 04:02:24;;;;;;;16.58;4.85;;;20.20;84.50;;;;;;5028293;28;20132;-62
2023/06/21 04:04:50;;;;;;;15.73;6.22;;;20.30;84.60;;;;;;5022945;28;21003;-63
2023/06/21 04:07:21;;;;;;;15.35;5.45;;;20.20;85.10;;;;;;5025569;28;20421;-62
2023/06/21 04:09:47;;;;;;;11.05;4.93;;;20.20;85.30;;;;;;5025470;28;20505;-61
2023/06/21 04:12:13;;;;;;;10.48;4.50;;;20.10;85.20;;;;;;5021843;28;20131;-59
2023/06/21 04:14:38;;;;;;;13.43;4.93;;;20.10;85.60;;;;;;5027213;28;20071;-61
2023/06/21 04:17:05;;;;;;;11.98;5.25;;;20.10;85.90;;;;;;5023558;28;20484;-63
2023/06/21 04:19:30;;;;;;;10.63;5.25;;;20.10;85.90;;;;;;5033297;28;20036;-62
2023/06/21 04:21:56;;;;;;;9.70;4.80;;;20.10;86.40;;;;;;5030723;28;20041;-62
2023/06/21 04:24:21;;;;;;;8.30;4.93;;;20.10;86.50;;;;;;5031080;28;20045;-59
2023/06/21 04:26:48;;;;;;;17.67;6.05;;;20.00;86.70;;;;;;5027250;28;20041;-61
2023/06/21 04:29:16;;;;;;;12.85;5.95;;;20.10;87.00;;;;;;5025952;28;20032;-64
2023/06/21 04:31:42;;;;;;;11.65;5.75;;;20.10;86.80;;;;;;5028908;28;20029;-63
2023/06/21 04:34:08;;;;;;;17.50;6.72;;;20.10;87.10;;;;;;5025805;28;20097;-63
2023/06/21 04:36:34;;;;;;;10.45;6.20;;;20.00;87.20;;;;;;5030559;28;20193;-63
2023/06/21 04:39:00;;;;;;;12.45;6.40;;;20.10;87.30;;;;;;5030964;28;20038;-62
2023/06/21 04:41:26;;;;;;;11.07;6.70;;;20.10;87.50;;;;;;5029655;28;20048;-63
2023/06/21 04:43:51;;;;;;;11.88;7.18;;;20.10;87.80;;;;;;5030613;28;20034;-63
2023/06/21 04:46:21;;;;;;;14.15;7.50;;;20.20;88.00;;;;;;5027814;28;20233;-64
2023/06/21 04:48:47;;;;;;;17.85;7.22;;;20.20;88.00;;;;;;5029525;28;20398;-63
2023/06/21 04:51:15;;;;;;;15.90;7.57;;;20.20;88.10;;;;;;5032441;28;20060;-63
2023/06/21 04:53:41;;;;;;;13.27;7.65;;;20.30;88.10;;;;;;5031920;28;20053;-63
2023/06/21 04:56:07;;;;;;;15.75;7.57;;;20.30;88.50;;;;;;5032502;28;20025;-62
2023/06/21 04:58:37;;;;;;;11.02;6.97;;;20.30;88.40;;;;;;5029279;28;20041;-65
2023/06/21 05:01:03;;;;;;;12.38;7.63;;;20.40;88.50;;;;;;5030712;28;20045;-64
2023/06/21 05:03:28;;;;;;;11.20;7.03;;;20.40;88.50;;;;;;5024407;28;20366;-63
2023/06/21 05:05:54;;;;;;;12.20;7.65;;;20.40;88.50;;;;;;5028080;28;20041;-65
2023/06/21 05:08:20;;;;;;;13.15;7.65;;;20.50;88.50;;;;;;5026549;28;20040;-64
2023/06/21 05:10:45;;;;;;;14.80;8.20;;;20.60;88.50;;;;;;5030613;28;20516;-64
2023/06/21 05:13:11;;;;;;;12.15;7.90;;;20.60;88.30;;;;;;5031304;28;20055;-63
2023/06/21 05:15:37;;;;;;;9.57;7.32;;;20.70;88.40;;;;;;5031917;28;20435;-63
2023/06/21 05:18:05;;;;;;;12.85;7.28;;;20.70;88.30;;;;;;5033930;28;20041;-64
2023/06/21 05:20:31;;;;;;;12.77;8.05;;;20.80;88.50;;;;;;5034357;28;20296;-63
2023/06/21 05:22:56;;;;;;;14.10;8.77;;;20.80;88.60;;;;;;5031875;28;20121;-63
2023/06/21 05:25:22;;;;;;;14.13;9.00;;;20.90;88.50;;;;;;5033509;28;20640;-63
2023/06/21 05:27:47;;;;;;;13.30;8.35;;;20.90;88.30;;;;;;5031693;28;20025;-63
2023/06/21 05:30:13;;;;;;;12.48;8.40;;;21.00;88.60;;;;;;5029007;28;20030;-63
2023/06/21 05:32:38;;;;;;;12.10;8.32;;;21.00;88.70;;;;;;5028214;28;20030;-63
2023/06/21 05:35:04;;;;;;;12.20;8.30;;;21.10;88.80;;;;;;5032367;28;20030;-64
2023/06/21 05:37:30;;;;;;;13.95;8.07;;;21.20;89.00;;;;;;5035428;28;20441;-64
2023/06/21 05:40:00;;;;;;;14.48;8.60;;;21.30;89.00;;;;;;5036801;28;20623;-64
2023/06/21 05:42:26;;;;;;;14.32;8.52;;;21.40;88.80;;;;;;5036215;28;20030;-63
2023/06/21 05:44:52;;;;;;;15.13;8.73;;;21.50;88.70;;;;;;5034963;28;20037;-63
2023/06/21 05:47:17;;;;;;;14.25;8.75;;;21.60;88.70;;;;;;5034752;28;20068;-64
2023/06/21 05:49:43;;;;;;;16.20;8.75;;;21.60;88.30;;;;;;5036669;28;20025;-63
2023/06/21 05:52:08;;;;;;;13.77;8.60;;;21.70;88.10;;;;;;5035577;28;20076;-63
2023/06/21 05:54:34;;;;;;;12.00;8.50;;;21.80;87.90;;;;;;5035082;28;20126;-63
2023/06/21 05:57:02;;;;;;;13.93;8.70;;;21.80;88.00;;;;;;5033408;28;20037;-63
2023/06/21 05:59:28;;;;;;;14.15;8.75;;;21.90;88.00;;;;;;5028018;28;20567;-63
2023/06/21 06:01:54;;;;;;;18.33;9.18;;;22.00;87.80;;;;;;5034210;28;20060;-63
2023/06/21 06:04:19;;;;;;;9.85;8.35;;;22.00;87.40;;;;;;5030897;28;20037;-63
2023/06/21 06:06:45;;;;;;;10.43;8.32;;;22.10;87.00;;;;;;5033701;28;20041;-63
2023/06/21 06:09:11;;;;;;;13.35;8.95;;;22.10;87.00;;;;;;5030969;28;20064;-63
2023/06/21 06:11:37;;;;;;;11.45;8.57;;;22.20;86.90;;;;;;5030271;28;20040;-63
2023/06/21 06:14:03;;;;;;;13.55;8.75;;;22.30;86.90;;;;;;5033698;28;20490;-63
2023/06/21 06:16:28;;;;;;;11.55;8.65;;;22.40;87.40;;;;;;5030812;28;20038;-63
2023/06/21 06:18:54;;;;;;;9.90;8.18;;;22.50;86.40;;;;;;5031216;28;20041;-62
2023/06/21 06:21:21;;;;;;;12.60;8.25;;;22.50;86.00;;;;;;5032061;28;20080;-63
2023/06/21 06:23:51;;;;;;;13.75;8.65;;;22.60;85.80;;;;;;5034205;28;20051;-63
2023/06/21 06:26:21;;;;;;;11.27;8.10;;;22.70;86.00;;;;;;5029575;28;20029;-63
2023/06/21 06:28:47;;;;;;;12.93;8.82;;;22.70;85.60;;;;;;5030907;28;20048;-62
2023/06/21 06:31:13;;;;;;;17.90;9.43;;;22.80;85.30;;;;;;5031931;28;20056;-63
2023/06/21 06:33:39;;;;;;;13.93;8.90;;;22.80;85.50;;;;;;5029943;28;20049;-63
2023/06/21 06:36:05;;;;;;;14.15;9.60;;;22.90;85.60;;;;;;5032063;28;20390;-63
2023/06/21 06:38:30;;;;;;;13.30;10.05;;;22.90;85.50;;;;;;5035025;28;20466;-63
2023/06/21 06:40:56;;;;;;;17.80;10.10;;;22.90;86.40;;;;;;5031546;28;20040;-63
2023/06/21 06:43:21;;;;;;;13.50;9.93;;;22.90;85.60;;;;;;5034150;28;20497;-64
2023/06/21 06:45:47;;;;;;;15.63;9.68;;;23.00;86.00;;;;;;5032114;28;20128;-64
2023/06/21 06:48:12;;;;;;;14.50;9.00;;;23.00;86.00;;;;;;5036564;28;20038;-64
2023/06/21 06:50:38;;;;;;;13.80;9.23;;;23.10;85.70;;;;;;5029332;28;20038;-64
2023/06/21 06:53:05;;;;;;;11.23;8.77;;;23.10;85.20;;;;;;5032000;28;20118;-64
2023/06/21 06:55:31;;;;;;;14.48;9.63;;;23.20;85.00;;;;;;5032339;28;20600;-63
2023/06/21 06:57:58;;;;;;;12.52;9.45;;;23.30;85.10;;;;;;5032601;28;20124;-64
2023/06/21 07:00:24;;;;;;;11.85;9.27;;;23.40;84.80;;;;;;5027630;28;20512;-64
2023/06/21 07:02:51;;;;;;;10.70;9.15;;;23.40;84.80;;;;;;5031889;28;20128;-64
2023/06/21 07:05:16;;;;;;;12.65;8.90;;;23.50;84.80;;;;;;5030386;28;20033;-64
2023/06/21 07:07:42;;;;;;;11.90;8.75;;;23.60;84.80;;;;;;5031477;28;20047;-63
2023/06/21 07:10:08;;;;;;;12.23;8.40;;;23.60;84.40;;;;;;5033432;28;20034;-64
2023/06/21 07:12:33;;;;;;;16.20;9.15;;;23.80;84.40;;;;;;5027939;28;21449;-63
2023/06/21 07:14:59;;;;;;;13.82;8.40;;;23.80;84.10;;;;;;5031903;28;20459;-64
2023/06/21 07:17:25;;;;;;;12.63;8.65;;;23.90;83.50;;;;;;5032010;28;20044;-64
2023/06/21 07:19:51;;;;;;;11.75;8.77;;;24.10;83.40;;;;;;5030620;28;20037;-64
2023/06/21 07:22:17;;;;;;;13.48;8.25;;;24.10;83.80;;;;;;5030978;28;20587;-63
2023/06/21 07:24:42;;;;;;;10.38;8.32;;;24.20;82.80;;;;;;5030506;28;20067;-65
2023/06/21 07:27:08;;;;;;;11.45;8.27;;;24.30;82.20;;;;;;5031292;28;20214;-64
2023/06/21 07:29:33;;;;;;;10.30;8.27;;;24.40;81.40;;;;;;5033104;28;20101;-64
2023/06/21 07:31:59;;;;;;;12.48;8.05;;;24.50;82.00;;;;;;5032244;28;20056;-64
2023/06/21 07:34:25;;;;;;;13.82;8.68;;;24.60;82.20;;;;;;5030086;28;20029;-63
2023/06/21 07:36:51;;;;;;;11.13;9.25;;;24.70;82.20;;;;;;5030177;28;20052;-64
2023/06/21 07:39:17;;;;;;;9.77;8.40;;;24.80;81.80;;;;;;5031438;28;20083;-64
2023/06/21 07:41:42;;;;;;;13.45;9.30;;;24.90;81.00;;;;;;5031721;28;20030;-64
2023/06/21 07:44:09;;;;;;;11.77;8.18;;;25.00;80.90;;;;;;5032704;28;20890;-62
2023/06/21 07:46:35;;;;;;;10.45;8.45;;;25.00;81.00;;;;;;5029741;28;20506;-63
2023/06/21 07:49:00;;;;;;;11.90;7.90;;;25.10;79.80;;;;;;5031462;28;20041;-64
2023/06/21 07:51:26;;;;;;;8.48;7.43;;;25.20;79.10;;;;;;5031252;28;20095;-64
2023/06/21 07:53:51;;;;;;;11.00;7.22;;;25.30;78.80;;;;;;5032760;28;20111;-64
2023/06/21 07:56:17;;;;;;;9.70;7.43;;;25.50;78.70;;;;;;5030272;28;20041;-64
2023/06/21 07:58:43;;;;;;;12.68;8.05;;;25.50;78.90;;;;;;5032153;28;20113;-64
2023/06/21 08:01:09;;;;;;;10.77;7.15;;;25.60;77.80;;;;;;5028982;28;20029;-65
2023/06/21 08:03:34;;;;;;;8.18;6.80;;;25.70;76.80;;;;;;5025820;28;20037;-64
2023/06/21 08:06:00;;;;;;;12.73;7.47;;;25.80;75.70;;;;;;5030799;28;20030;-64
2023/06/21 08:08:26;;;;;;;10.43;7.38;;;26.00;75.30;;;;;;5030664;28;20025;-64
2023/06/21 08:10:52;;;;;;;8.60;7.18;;;26.00;74.80;;;;;;5030103;28;20448;-65
2023/06/21 08:13:22;;;;;;;9.68;7.13;;;26.10;74.90;;;;;;5030885;28;20729;-64
2023/06/21 08:15:49;;;;;;;8.40;6.70;;;26.20;74.50;;;;;;5028975;28;20083;-65
2023/06/21 08:18:14;;;;;;;9.68;6.70;;;26.30;73.80;;;;;;5032184;28;20061;-65
2023/06/21 08:20:41;;;;;;;12.30;7.70;;;26.40;73.00;;;;;;5030981;28;20084;-65
2023/06/21 08:23:07;;;;;;;9.10;6.20;;;26.40;72.30;;;;;;5026928;28;20485;-64
2023/06/21 08:25:33;;;;;;;7.50;5.78;;;26.50;71.90;;;;;;5029829;28;20033;-64
2023/06/21 08:27:59;;;;;;;8.90;6.57;;;26.50;71.80;;;;;;5021704;28;20042;-65
2023/06/21 08:30:24;;;;;;;7.75;6.55;;;26.50;71.50;;;;;;5029916;28;20430;-64
2023/06/21 08:32:51;;;;;;;7.75;6.60;;;26.60;71.70;;;;;;5029157;28;20056;-64
2023/06/21 08:35:16;;;;;;;6.78;6.07;;;26.70;71.10;;;;;;5031519;28;20036;-64
2023/06/21 08:37:57;;;;;;;11.18;7.15;;;26.80;70.40;;;;;;5033130;28;20037;-64
2023/06/21 08:40:25;;;;;;;8.80;6.68;;;26.80;66.70;;;;;;5033498;28;20120;-65
2023/06/21 08:42:52;;;;;;;7.72;6.10;;;26.80;68.00;;;;;;5032597;28;20260;-65
2023/06/21 08:45:18;;;;;;;8.02;6.57;;;26.80;68.10;;;;;;5033519;28;20039;-64
2023/06/21 08:47:45;;;;;;;9.57;4.95;;;26.80;67.80;;;;;;5027779;28;20120;-64
2023/06/21 08:50:13;;;;;;;15.98;3.15;;;26.70;67.40;;;;;;5033193;28;20025;-65
2023/06/21 08:52:42;;;;;;;15.48;3.00;;;26.50;64.30;;;;;;5031871;28;20568;-63
2023/06/21 08:55:09;;;;;;;11.93;2.72;;;26.10;63.40;;;;;;5035260;28;20037;-64
2023/06/21 08:57:44;;;;;;;11.73;2.42;;;25.60;63.10;;;;;;5029381;28;20038;-64
2023/06/21 09:00:10;;;;;;;;;;;25.00;64.60;;;;;;5028712;28;20099;-63
2023/06/21 09:03:13;;;;;;;12.95;2.75;;;24.50;65.20;;;;;;5028458;28;19927;-63
2023/06/21 09:05:48;;;;;;;24.27;3.47;;;23.90;67.30;;;;;;5027030;28;20053;-64
2023/06/21 09:08:15;;;;;;;23.30;4.30;;;23.30;67.40;;;;;;5023750;28;20124;-64
2023/06/21 09:10:43;;;;;;;11.30;3.03;;;22.90;68.60;;;;;;5031132;28;20030;-64
2023/06/21 09:13:10;;;;;;;16.23;3.00;;;22.60;70.50;;;;;;5030595;28;20037;-64
2023/06/21 09:15:37;;;;;;;16.42;3.85;;;22.30;71.90;;;;;;5033270;28;20075;-64
2023/06/21 09:18:03;;;;;;;16.88;3.72;;;22.10;72.90;;;;;;5034020;28;20061;-64
2023/06/21 09:20:29;;;;;;;13.18;3.17;;;21.90;73.70;;;;;;5029835;28;20349;-64
2023/06/21 09:22:59;;;;;;;14.05;3.03;;;21.70;74.30;;;;;;5033507;28;20516;-62
2023/06/21 09:25:26;;;;;;;12.15;3.00;;;21.60;75.10;;;;;;5033392;28;20069;-64
2023/06/21 09:27:55;;;;;;;12.32;3.22;;;21.40;75.60;;;;;;5034640;28;20040;-63
2023/06/21 09:30:22;;;;;;;13.90;3.00;;;21.30;76.60;;;;;;5033854;28;20029;-64
2023/06/21 09:32:51;;;;;;;9.88;2.78;;;21.20;77.10;;;;;;5030538;28;20038;-64
2023/06/21 09:35:17;;;;;;;12.02;3.10;;;21.20;78.30;;;;;;5032603;28;20029;-66
2023/06/21 09:37:43;;;;;;;12.13;3.20;;;21.10;78.50;;;;;;5036485;28;20033;-66
2023/06/21 09:40:08;;;;;;;12.13;3.00;;;21.10;78.40;;;;;;5034178;28;20411;-65
2023/06/21 09:42:39;;;;;;;15.80;3.50;;;21.00;78.20;;;;;;5033774;28;20034;-65
2023/06/21 09:45:12;;;;;;;15.63;3.15;;;21.00;78.80;;;;;;5034500;28;20035;-66
2023/06/21 09:47:41;;;;;;;13.77;3.13;;;20.90;79.00;;;;;;5032839;28;20404;-66
2023/06/21 09:50:08;;;;;;;11.43;2.75;;;20.80;79.10;;;;;;5031503;28;20497;-65
2023/06/21 09:52:34;;;;;;;11.85;2.95;;;20.70;79.20;;;;;;5035364;28;20030;-67
2023/06/21 09:55:02;;;;;;;9.90;2.83;;;20.60;79.90;;;;;;5033128;28;20108;-66
2023/06/21 09:57:29;;;;;;;14.23;2.72;;;20.60;80.80;;;;;;5034500;28;20043;-66
2023/06/21 09:59:55;;;;;;;13.52;3.15;;;20.50;80.90;;;;;;5035160;28;20038;-66
2023/06/21 10:02:21;;;;;;;12.63;3.10;;;20.50;81.10;;;;;;5031349;28;20459;-65
2023/06/21 10:04:47;;;;;;;15.88;3.03;;;20.50;81.30;;;;;;5031698;28;20049;-66
2023/06/21 10:07:14;;;;;;;8.13;2.67;;;20.50;81.70;;;;;;5035775;28;20057;-65
2023/06/21 10:09:41;;;;;;;15.63;3.55;;;20.50;81.90;;;;;;5033647;28;20128;-66
2023/06/21 10:12:11;;;;;;;13.50;3.45;;;20.40;82.30;;;;;;5029128;28;20030;-66
2023/06/21 10:14:36;;;;;;;12.77;3.40;;;20.50;82.80;;;;;;5035034;28;20045;-65
2023/06/21 10:17:03;;;;;;;14.68;3.55;;;20.50;82.90;;;;;;5036212;28;20045;-67
2023/06/21 10:19:32;;;;;;;15.05;3.55;;;20.50;83.20;;;;;;5036809;28;20067;-67
2023/06/21 10:22:10;;;;;;;18.35;3.78;;;20.60;83.50;;;;;;5036487;28;20091;-66
2023/06/21 10:24:52;;;;;;;19.67;3.55;;;20.70;82.80;;;;;;5035311;28;20030;-66
2023/06/21 10:27:20;;;;;;;14.90;3.35;;;20.70;83.80;;;;;;5034989;28;20044;-67
2023/06/21 10:29:52;;;;;;;13.90;3.58;;;20.80;83.40;;;;;;5036012;28;20068;-66
2023/06/21 10:32:19;;;;;;;14.13;3.55;;;20.90;84.00;;;;;;5034113;28;20476;-67
2023/06/21 10:35:00;;;;;;;16.67;3.15;;;20.90;83.50;;;;;;5032629;28;20039;-65
2023/06/21 10:37:48;;;;;;;14.27;3.53;;;21.00;83.10;;;;;;5037100;28;20079;-66
2023/06/21 10:40:15;;;;;;;14.85;4.00;;;21.10;83.20;;;;;;5033636;28;20061;-66
2023/06/21 10:42:42;;;;;;;15.93;3.25;;;21.20;82.50;;;;;;5035789;28;20034;-66
2023/06/21 10:45:12;;;;;;;15.02;4.00;;;21.20;82.20;;;;;;5031134;28;20280;-65
2023/06/21 10:47:39;;;;;;;16.58;3.80;;;21.30;82.60;;;;;;5032014;28;20040;-66
2023/06/21 10:50:06;;;;;;;15.85;3.45;;;21.40;82.70;;;;;;5026317;28;20033;-67
2023/06/21 10:52:33;;;;;;;11.85;3.30;;;21.40;83.10;;;;;;5028693;28;20036;-67
2023/06/21 10:55:02;;;;;;;15.95;3.63;;;21.60;83.60;;;;;;5032376;28;20097;-66
2023/06/21 10:57:29;;;;;;;15.93;3.20;;;21.70;83.80;;;;;;5028157;28;20505;-66
2023/06/21 10:59:56;;;;;;;16.42;3.75;;;21.80;83.80;;;;;;5036380;28;20501;-66
2023/06/21 11:02:25;;;;;;;13.48;3.42;;;21.80;83.40;;;;;;5033911;28;20087;-66
2023/06/21 11:05:17;;;;;;;14.13;3.78;;;21.90;83.80;;;;;;5033932;28;20565;-66
2023/06/21 11:08:04;;;;;;;15.05;4.03;;;22.10;83.60;;;;;;5033920;28;20064;-66
2023/06/21 11:10:29;;;;;;;15.10;3.67;;;22.20;83.10;;;;;;5031405;28;20030;-66
2023/06/21 11:12:56;;;;;;;19.00;4.00;;;22.30;82.50;;;;;;5027958;28;20037;-65
2023/06/21 11:15:24;;;;;;;15.20;3.30;;;22.40;83.10;;;;;;5029970;28;20041;-66
2023/06/21 11:18:06;;;;;;;16.95;4.20;;;22.50;82.90;;;;;;5032945;28;20440;-65
2023/06/21 11:20:43;;;;;;;17.67;3.95;;;22.60;83.40;;;;;;5033091;28;20140;-65
2023/06/21 11:23:09;;;;;;;15.38;3.70;;;22.70;82.60;;;;;;5033945;28;20120;-65
2023/06/21 11:25:38;;;;;;;15.95;3.50;;;22.90;81.60;;;;;;5032159;28;20288;-65
2023/06/21 11:28:19;;;;;;;14.05;3.60;;;22.90;80.60;;;;;;5031297;28;20112;-66
2023/06/21 11:31:14;;;;;;;16.30;3.80;;;23.00;79.80;;;;;;5033257;28;20033;-66
2023/06/21 11:33:52;;;;;;;14.52;3.78;;;23.20;78.00;;;;;;5031316;28;20049;-66
2023/06/21 11:36:21;;;;;;;14.02;3.42;;;23.20;79.40;;;;;;5030048;28;20049;-65
2023/06/21 11:39:04;;;;;;;14.20;3.65;;;23.20;78.90;;;;;;5032120;28;20037;-65
2023/06/21 11:41:33;;;;;;;12.75;3.92;;;23.30;79.40;;;;;;5033696;28;20615;-66
2023/06/21 11:43:58;;;;;;;9.75;3.67;;;23.40;80.00;;;;;;5030228;28;20044;-66
2023/06/21 11:46:25;;;;;;;17.35;4.00;;;23.40;79.60;;;;;;5030292;28;20037;-65
2023/06/21 11:48:58;;;;;;;12.57;3.85;;;23.60;79.00;;;;;;5029664;28;20417;-67
2023/06/21 11:51:24;;;;;;;14.02;3.78;;;23.60;78.90;;;;;;5032027;28;20428;-65
2023/06/21 11:53:50;;;;;;;13.50;3.80;;;23.70;79.30;;;;;;5031241;28;20042;-66
2023/06/21 11:56:18;;;;;;;12.27;3.90;;;23.80;78.80;;;;;;5028763;28;20479;-67
2023/06/21 11:58:46;;;;;;;9.48;3.35;;;23.80;78.80;;;;;;5032646;28;20049;-67
2023/06/21 12:01:13;;;;;;;12.25;3.85;;;23.90;79.10;;;;;;5029414;28;20103;-66
2023/06/21 12:03:39;;;;;;;15.30;3.58;;;24.10;79.40;;;;;;5028851;28;20531;-65
2023/06/21 12:06:05;;;;;;;12.63;3.20;;;24.10;78.60;;;;;;5031770;28;20041;-65
2023/06/21 12:08:39;;;;;;;13.73;3.75;;;24.30;78.70;;;;;;5030390;28;20072;-66
2023/06/21 12:11:06;;;;;;;;;;;24.40;78.50;;;;;;5029655;28;20374;-66
2023/06/21 12:13:33;;;;;;;11.85;3.85;;;24.60;78.30;;;;;;5028659;28;20505;-65
2023/06/21 12:16:02;;;;;;;9.23;3.80;;;24.70;79.00;;;;;;5029406;28;20122;-66
2023/06/21 12:18:29;;;;;;;9.20;3.20;;;24.70;78.50;;;;;;5028047;28;20037;-65
2023/06/21 12:20:58;;;;;;;8.73;3.58;;;24.90;78.40;;;;;;5034066;28;20057;-66
2023/06/21 12:23:24;;;;;;;11.20;3.15;;;25.00;77.60;;;;;;5031116;28;20110;-65
2023/06/21 12:25:52;;;;;;;13.15;3.20;;;25.10;78.00;;;;;;5030728;28;20033;-66
2023/06/21 12:28:20;;;;;;;9.57;3.00;;;25.30;77.90;;;;;;5025152;28;20032;-66
2023/06/21 12:30:47;;;;;;;12.18;3.15;;;25.40;76.20;;;;;;5033120;28;20036;-66
2023/06/21 12:33:12;;;;;;;13.52;3.17;;;25.50;74.20;;;;;;5031067;28;20033;-66
2023/06/21 12:35:38;;;;;;;11.07;3.17;;;25.50;75.40;;;;;;5030298;28;20401;-66
2023/06/21 12:38:15;;;;;;;13.13;3.30;;;25.60;74.60;;;;;;5032682;28;20128;-66
2023/06/21 12:40:55;;;;;;;10.43;3.17;;;25.70;74.40;;;;;;5032438;28;20095;-67
2023/06/21 12:43:37;;;;;;;10.90;3.20;;;25.80;74.70;;;;;;5031667;28;20041;-66